Metairie, LA (70060)

4:16 PM CDT on March 29, 2015 (GMT -0500)
Barkley Estates | | Change Station
CLOSE
Current Station
Personal Weather Station
Location: Harvey, LA
Elevation: 7 ft
Nearby Weather Stations

Elev 7 ft 29.88 °N, 90.08 °W | Updated 2 minutes ago

Mostly Cloudy
Mostly Cloudy
78.3 °F
Feels Like 80 °F
N
7.3
Wind Variable Wind from South

Today
High -- | Low -- °F
--% Chance of Precip.
Yesterday
High -- | Low -- °F
Precip. -- in
6:53 AM 7:17 PM
Waxing Gibbous, 74% visible
Pressure 30.21 in
Visibility 10.0 miles
Clouds Scattered Clouds 4000 ft
Scattered Clouds 4500 ft
Heat Index 80 °F
Dew Point 66 °F
Humidity 65%
Rainfall 0.00 in
Snow Depth Not available.
UV 5 out of 12
Pollen 10.20 out of 12
Air Quality Not available.
Flu Activity Not available.
METAR KNBG 292055Z 17014KT 10SM SCT040 SCT045 23/16 A3021 RMK AO2 SLP228 6//// T02330156 58021 PNO $

More Conditions Fewer Conditions

Pressure 30.21 in
Visibility 10.0 miles
Clouds Scattered Clouds 4000 ft
Scattered Clouds 4500 ft
Heat Index 80 °F
Dew Point 66 °F
Humidity 65%
Rainfall 0.00 in
Snow Depth Not available.
UV 5 out of 12
Pollen 10.20 out of 12
Air Quality Not available.
Flu Activity Not available.
METAR KNBG 292055Z 17014KT 10SM SCT040 SCT045 23/16 A3021 RMK AO2 SLP228 6//// T02330156 58021 PNO $

More Conditions Fewer Conditions

10-Day Weather Forecast

Almanac

Astronomy

Mar. 29, 2015 Rise Set
Actual Time
Civil Twilight
Nautical Twilight
Astronomical Twilight
Moon
Length of Visible Light
Length of Day
Tomorrow will be .
, % of the Moon is Illuminated

Today's Extremes

State Highs State Lows

Community

WunderPhotos

Upload Photos

1,809,353 photos uploaded!

WunderBlogs® & News

Nearby

Air Quality

  Air Quality AQ Index Pollutant
Not available.

Snow Depth

Station Depth Elevation

Earthquake Activity

City Distance Mag. Time & Date
Minimum magnitude displayed is 2.5.

Coastal Water Temperatures

Place Temperature

Stations

Nearby Weather Stations

Station Location Temp. Windchill Dew Point Humidity Wind Precip. Elev Updated Type